Time;durP1;ratioP1;P1;durP2;ratioP2;P2;SDS_P1;SDS_P2;PMS_P1;PMS_P2;Temp;Humidity;BMP_temperature;BMP_pressure;BME280_temperature;BME280_humidity;BME280_pressure;Samples;Min_cycle;Max_cycle;Signal;HPM_P1;HPM_P2
2021/04/06 00:00:13;;;;;;;33.83;18.33;;;;;;;;;;5034880;28;20470;-60
2021/04/06 00:02:42;;;;;;;30.73;17.37;;;;;;;;;;5034620;28;20473;-60
2021/04/06 00:05:09;;;;;;;32.00;18.70;;;;;;;;;;5034612;28;20491;-60
2021/04/06 00:07:36;;;;;;;29.37;16.57;;;;;;;;;;5035050;28;20479;-60
2021/04/06 00:10:06;;;;;;;33.67;17.63;;;;;;;;;;5034940;28;20865;-60
2021/04/06 00:12:33;;;;;;;31.87;18.47;;;;;;;;;;5034342;28;20465;-59
2021/04/06 00:15:00;;;;;;;30.23;16.60;;;;;;;;;;5034813;28;20492;-60
2021/04/06 00:17:28;;;;;;;29.27;18.10;;;;;;;;;;5034383;28;20884;-59
2021/04/06 00:19:56;;;;;;;27.57;17.53;;;;;;;;;;5034496;28;20456;-59
2021/04/06 00:22:23;;;;;;;33.13;19.33;;;;;;;;;;5033773;28;20480;-59
2021/04/06 00:24:51;;;;;;;31.30;14.97;;;;;;;;;;5033512;28;20515;-60
2021/04/06 00:27:19;;;;;;;31.67;18.73;;;;;;;;;;5034557;28;20459;-60
2021/04/06 00:29:47;;;;;;;34.47;18.60;;;;;;;;;;5034481;28;20453;-60
2021/04/06 00:32:14;;;;;;;36.37;18.97;;;;;;;;;;5034057;28;20473;-60
2021/04/06 00:34:42;;;;;;;30.87;16.47;;;;;;;;;;5034070;28;20520;-62
2021/04/06 00:37:10;;;;;;;33.13;14.77;;;;;;;;;;5034553;28;20456;-62
2021/04/06 00:39:37;;;;;;;27.23;16.03;;;;;;;;;;5034206;28;20506;-62
2021/04/06 00:42:05;;;;;;;26.00;12.90;;;;;;;;;;5034071;28;20479;-60
2021/04/06 00:44:32;;;;;;;34.00;13.23;;;;;;;;;;5033935;28;20492;-60
2021/04/06 00:46:59;;;;;;;21.73;11.03;;;;;;;;;;5034419;28;20447;-59
2021/04/06 00:49:26;;;;;;;18.90;9.50;;;;;;;;;;5034346;28;20446;-60
2021/04/06 00:51:53;;;;;;;16.73;8.43;;;;;;;;;;5033634;28;20492;-60
2021/04/06 00:54:22;;;;;;;18.33;7.97;;;;;;;;;;5034004;28;20937;-60
2021/04/06 00:56:49;;;;;;;12.63;7.67;;;;;;;;;;5033660;28;20459;-60
2021/04/06 00:59:20;;;;;;;16.10;7.20;;;;;;;;;;5033771;28;20453;-60
2021/04/06 01:01:47;;;;;;;13.37;5.40;;;;;;;;;;5033424;28;20452;-60
2021/04/06 01:04:15;;;;;;;17.33;5.37;;;;;;;;;;5033725;28;20989;-60
2021/04/06 01:07:02;;;;;;;10.37;4.97;;;;;;;;;;5033619;28;20453;-59
2021/04/06 01:09:31;;;;;;;11.63;4.00;;;;;;;;;;5030340;28;20470;-60
2021/04/06 01:11:59;;;;;;;10.70;3.63;;;;;;;;;;5033460;28;20445;-60
2021/04/06 01:14:25;;;;;;;14.00;4.20;;;;;;;;;;5033667;28;20464;-57
2021/04/06 01:16:52;;;;;;;9.40;3.20;;;;;;;;;;5033600;28;20536;-59
2021/04/06 01:19:20;;;;;;;5.57;2.57;;;;;;;;;;5033658;28;20821;-60
2021/04/06 01:21:47;;;;;;;11.10;2.70;;;;;;;;;;5033151;28;20518;-59
2021/04/06 01:24:15;;;;;;;5.97;2.07;;;;;;;;;;5032826;28;20447;-60
2021/04/06 01:26:41;;;;;;;10.07;3.00;;;;;;;;;;5033620;28;20455;-60
2021/04/06 01:29:08;;;;;;;6.47;2.87;;;;;;;;;;5033493;28;20463;-60
2021/04/06 01:31:35;;;;;;;7.33;2.40;;;;;;;;;;5033044;28;20845;-59
2021/04/06 01:34:02;;;;;;;13.77;2.83;;;;;;;;;;5033329;28;20500;-59
2021/04/06 01:36:28;;;;;;;5.77;2.70;;;;;;;;;;5033371;28;20448;-60
2021/04/06 01:38:55;;;;;;;14.17;3.03;;;;;;;;;;5033139;28;20449;-60
2021/04/06 01:41:23;;;;;;;14.27;3.07;;;;;;;;;;5033372;28;20456;-58
2021/04/06 01:43:50;;;;;;;5.70;1.93;;;;;;;;;;5034234;28;20476;-59
2021/04/06 01:46:18;;;;;;;7.63;2.40;;;;;;;;;;5035606;28;20552;-59
2021/04/06 01:48:45;;;;;;;8.10;1.90;;;;;;;;;;5033231;28;20510;-58
2021/04/06 01:51:12;;;;;;;7.40;2.10;;;;;;;;;;5032852;28;20457;-59
2021/04/06 01:53:39;;;;;;;7.43;2.23;;;;;;;;;;5032235;28;20506;-60
2021/04/06 01:56:09;;;;;;;6.40;1.77;;;;;;;;;;5033010;28;20464;-60
2021/04/06 01:58:38;;;;;;;8.97;2.23;;;;;;;;;;5032629;28;20467;-59
2021/04/06 02:01:14;;;;;;;7.93;2.30;;;;;;;;;;5032683;28;21011;-60
2021/04/06 02:03:43;;;;;;;11.17;2.57;;;;;;;;;;5032091;28;20471;-59
2021/04/06 02:06:10;;;;;;;12.03;3.13;;;;;;;;;;5032814;28;20490;-59
2021/04/06 02:08:38;;;;;;;11.30;2.60;;;;;;;;;;5032694;28;20453;-60
2021/04/06 02:11:05;;;;;;;11.90;2.60;;;;;;;;;;5032675;28;20502;-60
2021/04/06 02:13:31;;;;;;;9.67;2.60;;;;;;;;;;5032510;28;20587;-58
2021/04/06 02:16:00;;;;;;;11.67;2.30;;;;;;;;;;5032416;28;20450;-59
2021/04/06 02:18:28;;;;;;;11.27;3.50;;;;;;;;;;5032532;28;20451;-59
2021/04/06 02:20:55;;;;;;;8.23;2.70;;;;;;;;;;5032329;28;20971;-59
2021/04/06 02:23:22;;;;;;;9.43;2.97;;;;;;;;;;5032195;28;21036;-60
2021/04/06 02:25:53;;;;;;;11.23;3.07;;;;;;;;;;5032904;28;20523;-59
2021/04/06 02:28:21;;;;;;;10.80;3.40;;;;;;;;;;5033082;28;20449;-60
2021/04/06 02:30:55;;;;;;;9.87;3.53;;;;;;;;;;5032352;28;20457;-59
2021/04/06 02:33:26;;;;;;;6.83;3.87;;;;;;;;;;5031963;28;20473;-60
2021/04/06 02:35:56;;;;;;;8.67;3.57;;;;;;;;;;5032595;28;20449;-58
2021/04/06 02:38:23;;;;;;;10.87;4.17;;;;;;;;;;5032303;28;20459;-59
2021/04/06 02:40:50;;;;;;;12.43;3.80;;;;;;;;;;5032491;28;20453;-59
2021/04/06 02:43:16;;;;;;;7.77;3.60;;;;;;;;;;5032091;28;20551;-59
2021/04/06 02:45:43;;;;;;;9.80;4.03;;;;;;;;;;5031672;28;20485;-58
2021/04/06 02:48:12;;;;;;;11.13;5.00;;;;;;;;;;5031559;28;20452;-59
2021/04/06 02:50:40;;;;;;;9.97;4.83;;;;;;;;;;5032052;28;20452;-59
2021/04/06 02:53:07;;;;;;;17.37;5.73;;;;;;;;;;5031569;28;20508;-58
2021/04/06 02:55:34;;;;;;;17.70;6.10;;;;;;;;;;5031543;28;21007;-60
2021/04/06 02:58:01;;;;;;;17.47;7.63;;;;;;;;;;5031668;28;21100;-60
2021/04/06 03:00:31;;;;;;;16.80;7.43;;;;;;;;;;5031586;28;20499;-60
2021/04/06 03:02:59;;;;;;;17.87;7.93;;;;;;;;;;5031430;28;20480;-56
2021/04/06 03:05:28;;;;;;;29.40;9.10;;;;;;;;;;5031732;28;20491;-58
2021/04/06 03:07:55;;;;;;;26.67;10.87;;;;;;;;;;5031690;28;20486;-60
2021/04/06 03:10:22;;;;;;;27.33;11.97;;;;;;;;;;5031647;28;20830;-60
2021/04/06 03:12:49;;;;;;;24.57;11.70;;;;;;;;;;5031121;28;20908;-60
2021/04/06 03:15:20;;;;;;;22.00;9.87;;;;;;;;;;5031900;28;20549;-60
2021/04/06 03:17:49;;;;;;;22.77;9.97;;;;;;;;;;5031558;28;20445;-60
2021/04/06 03:20:16;;;;;;;19.67;8.13;;;;;;;;;;5031725;28;20495;-60
2021/04/06 03:22:43;;;;;;;25.10;8.60;;;;;;;;;;5031018;28;20988;-59
2021/04/06 03:25:13;;;;;;;22.47;8.07;;;;;;;;;;5031324;28;20485;-59
2021/04/06 03:27:43;;;;;;;17.73;7.43;;;;;;;;;;5031476;28;20445;-59
2021/04/06 03:30:10;;;;;;;24.63;8.70;;;;;;;;;;5031625;28;21062;-59
2021/04/06 03:32:36;;;;;;;25.17;7.17;;;;;;;;;;5031557;28;20475;-59
2021/04/06 03:35:03;;;;;;;14.10;5.63;;;;;;;;;;5031580;28;20804;-61
2021/04/06 03:37:30;;;;;;;15.30;5.30;;;;;;;;;;5031411;28;20453;-59
2021/04/06 03:39:57;;;;;;;12.37;4.77;;;;;;;;;;5031382;28;20460;-60
2021/04/06 03:42:25;;;;;;;10.77;4.57;;;;;;;;;;5031210;28;20468;-59
2021/04/06 03:44:52;;;;;;;16.30;6.27;;;;;;;;;;5031255;28;21043;-60
2021/04/06 03:47:18;;;;;;;19.10;5.97;;;;;;;;;;5031472;28;20452;-58
2021/04/06 03:49:49;;;;;;;16.77;5.93;;;;;;;;;;5031062;28;20456;-60
2021/04/06 03:52:16;;;;;;;14.73;5.20;;;;;;;;;;5030795;28;20476;-60
2021/04/06 03:54:44;;;;;;;13.07;6.30;;;;;;;;;;5031487;28;20482;-60
2021/04/06 03:57:28;;;;;;;20.47;6.97;;;;;;;;;;5031331;28;20488;-59
2021/04/06 03:59:54;;;;;;;15.40;7.13;;;;;;;;;;5035012;28;20453;-59
2021/04/06 04:02:22;;;;;;;12.67;6.70;;;;;;;;;;5034492;28;20468;-59
2021/04/06 04:04:48;;;;;;;26.80;6.60;;;;;;;;;;5034672;28;20506;-59
2021/04/06 04:07:15;;;;;;;18.37;6.03;;;;;;;;;;5034850;28;20460;-60
2021/04/06 04:09:41;;;;;;;15.40;5.93;;;;;;;;;;5035020;28;20461;-60
2021/04/06 04:12:08;;;;;;;16.87;5.93;;;;;;;;;;5034446;28;20471;-61
2021/04/06 04:14:35;;;;;;;19.67;6.83;;;;;;;;;;5034552;28;20944;-62
2021/04/06 04:17:02;;;;;;;14.53;6.93;;;;;;;;;;5032547;28;20448;-61
2021/04/06 04:19:29;;;;;;;13.67;5.73;;;;;;;;;;5034300;28;20445;-61
2021/04/06 04:21:55;;;;;;;11.67;4.33;;;;;;;;;;5034443;28;20492;-61
2021/04/06 04:24:22;;;;;;;14.37;4.90;;;;;;;;;;5034388;28;20452;-61
2021/04/06 04:26:48;;;;;;;15.93;4.17;;;;;;;;;;5034331;28;20502;-61
2021/04/06 04:29:15;;;;;;;8.80;3.70;;;;;;;;;;5034314;28;20458;-61
2021/04/06 04:31:45;;;;;;;16.43;4.70;;;;;;;;;;5033017;28;20959;-61
2021/04/06 04:34:11;;;;;;;12.20;3.80;;;;;;;;;;5033811;28;20471;-62
2021/04/06 04:36:38;;;;;;;10.73;4.57;;;;;;;;;;5034006;28;20454;-62
2021/04/06 04:39:05;;;;;;;10.10;3.30;;;;;;;;;;5034275;28;20455;-62
2021/04/06 04:41:31;;;;;;;12.87;3.70;;;;;;;;;;5033900;28;20457;-62
2021/04/06 04:43:58;;;;;;;6.70;3.40;;;;;;;;;;5033642;28;20469;-61
2021/04/06 04:46:24;;;;;;;10.43;3.60;;;;;;;;;;5034189;28;20489;-60
2021/04/06 04:48:52;;;;;;;12.07;3.40;;;;;;;;;;5034264;28;20942;-60
2021/04/06 04:51:18;;;;;;;13.10;3.47;;;;;;;;;;5034153;28;20451;-60
2021/04/06 04:53:45;;;;;;;17.63;3.50;;;;;;;;;;5033449;28;20471;-60
2021/04/06 04:56:11;;;;;;;22.27;4.23;;;;;;;;;;5033733;28;20449;-60
2021/04/06 04:58:38;;;;;;;15.53;3.37;;;;;;;;;;5033466;28;20808;-60
2021/04/06 05:01:04;;;;;;;15.50;3.70;;;;;;;;;;5033480;28;20451;-61
2021/04/06 05:03:32;;;;;;;12.80;3.33;;;;;;;;;;5033290;28;20473;-58
2021/04/06 05:06:00;;;;;;;13.17;3.90;;;;;;;;;;5033936;28;20495;-60
2021/04/06 05:08:26;;;;;;;14.47;4.77;;;;;;;;;;5033852;28;20507;-60
2021/04/06 05:10:53;;;;;;;19.27;5.07;;;;;;;;;;5033041;28;20459;-58
2021/04/06 05:13:19;;;;;;;7.47;3.60;;;;;;;;;;5033361;28;20860;-60
2021/04/06 05:15:46;;;;;;;14.77;5.60;;;;;;;;;;5033825;28;20821;-58
2021/04/06 05:18:12;;;;;;;15.77;6.23;;;;;;;;;;5034139;28;20445;-65
2021/04/06 05:20:39;;;;;;;13.40;5.70;;;;;;;;;;5033422;28;20451;-65
2021/04/06 05:23:06;;;;;;;11.77;5.37;;;;;;;;;;5033827;28;20525;-66
2021/04/06 05:25:33;;;;;;;12.10;6.90;;;;;;;;;;5029589;28;20483;-65
2021/04/06 05:27:59;;;;;;;10.83;6.30;;;;;;;;;;5033065;28;20449;-63
2021/04/06 05:30:26;;;;;;;11.40;5.37;;;;;;;;;;5034011;28;20443;-64
2021/04/06 05:32:53;;;;;;;9.63;5.73;;;;;;;;;;5033373;28;20475;-65
2021/04/06 05:35:21;;;;;;;16.70;5.73;;;;;;;;;;5033568;28;20461;-63
2021/04/06 05:37:47;;;;;;;13.97;7.33;;;;;;;;;;5031460;28;20454;-63
2021/04/06 05:40:15;;;;;;;18.83;8.40;;;;;;;;;;5033191;28;20456;-64
2021/04/06 05:42:41;;;;;;;20.17;8.80;;;;;;;;;;5033082;28;20479;-64
2021/04/06 05:45:10;;;;;;;16.70;8.63;;;;;;;;;;5047245;28;20484;-63
2021/04/06 05:47:37;;;;;;;11.60;7.23;;;;;;;;;;5052515;28;20450;-63
2021/04/06 05:50:04;;;;;;;17.13;7.23;;;;;;;;;;5052317;28;20464;-63
2021/04/06 05:52:31;;;;;;;17.23;7.80;;;;;;;;;;5052096;28;20487;-63
2021/04/06 05:54:58;;;;;;;17.90;8.27;;;;;;;;;;5051860;28;20827;-62
2021/04/06 05:57:26;;;;;;;19.43;8.57;;;;;;;;;;5051822;28;20947;-62
2021/04/06 05:59:52;;;;;;;23.83;10.43;;;;;;;;;;5052619;28;20454;-63
2021/04/06 06:02:19;;;;;;;21.97;9.47;;;;;;;;;;5051730;28;20511;-63
2021/04/06 06:04:46;;;;;;;23.77;11.27;;;;;;;;;;5051966;28;20490;-63
2021/04/06 06:07:13;;;;;;;23.97;10.90;;;;;;;;;;5051673;28;20454;-67
2021/04/06 06:09:39;;;;;;;22.40;10.77;;;;;;;;;;5052210;28;20459;-66
2021/04/06 06:12:07;;;;;;;24.33;9.87;;;;;;;;;;5051593;28;20469;-67
2021/04/06 06:14:35;;;;;;;22.30;10.37;;;;;;;;;;5051887;28;20451;-66
2021/04/06 06:17:15;;;;;;;20.70;9.37;;;;;;;;;;5051625;28;20866;-65
2021/04/06 06:19:42;;;;;;;23.10;10.03;;;;;;;;;;5051815;28;20472;-64
2021/04/06 06:22:13;;;;;;;25.87;11.40;;;;;;;;;;5037644;28;20966;-65
2021/04/06 06:24:43;;;;;;;31.90;11.33;;;;;;;;;;5031687;28;20449;-64
2021/04/06 06:27:23;;;;;;;29.80;12.27;;;;;;;;;;5031645;28;20462;-66
2021/04/06 06:29:50;;;;;;;27.53;13.37;;;;;;;;;;5031861;28;20444;-64
2021/04/06 06:32:20;;;;;;;28.93;13.07;;;;;;;;;;5030978;28;20844;-69
2021/04/06 06:34:47;;;;;;;27.93;12.27;;;;;;;;;;5030358;28;20841;-70
2021/04/06 06:37:17;;;;;;;21.07;10.20;;;;;;;;;;5030284;28;20457;-70
2021/04/06 06:39:59;;;;;;;25.53;12.87;;;;;;;;;;5030990;28;20489;-69
2021/04/06 06:42:27;;;;;;;22.47;11.83;;;;;;;;;;5031057;28;20480;-63
2021/04/06 06:44:55;;;;;;;22.37;10.70;;;;;;;;;;5031499;28;21008;-68
2021/04/06 06:47:22;;;;;;;18.63;10.70;;;;;;;;;;5031070;28;20457;-67
2021/04/06 06:49:51;;;;;;;21.20;9.27;;;;;;;;;;5031489;28;20453;-67
2021/04/06 06:52:28;;;;;;;17.83;9.13;;;;;;;;;;5031228;28;20567;-66
2021/04/06 06:54:57;;;;;;;18.13;10.13;;;;;;;;;;5031290;28;20543;-63
2021/04/06 06:57:29;;;;;;;19.97;9.70;;;;;;;;;;5030884;28;21314;-63
2021/04/06 07:00:03;;;;;;;15.07;7.33;;;;;;;;;;5031395;28;21047;-68
2021/04/06 07:02:30;;;;;;;11.53;5.43;;;;;;;;;;5032399;28;20821;-67
2021/04/06 07:05:09;;;;;;;13.77;5.30;;;;;;;;;;5032456;28;20595;-65
2021/04/06 07:07:47;;;;;;;9.77;4.97;;;;;;;;;;5032050;28;20447;-63
2021/04/06 07:10:15;;;;;;;10.07;5.20;;;;;;;;;;5031682;28;20459;-64
2021/04/06 07:12:42;;;;;;;11.53;5.43;;;;;;;;;;5031231;28;20993;-64
2021/04/06 07:15:10;;;;;;;9.13;5.27;;;;;;;;;;5031730;28;20854;-63
2021/04/06 07:17:37;;;;;;;12.53;6.43;;;;;;;;;;5031395;28;21005;-63
2021/04/06 07:20:04;;;;;;;8.97;5.57;;;;;;;;;;5031410;28;20798;-65
2021/04/06 07:22:31;;;;;;;11.07;5.90;;;;;;;;;;5030786;28;20472;-64
2021/04/06 07:24:58;;;;;;;8.40;4.70;;;;;;;;;;5031208;28;20512;-62
2021/04/06 07:27:26;;;;;;;10.13;5.30;;;;;;;;;;5030984;28;20456;-61
2021/04/06 07:29:53;;;;;;;15.07;7.33;;;;;;;;;;5031140;28;20579;-62
2021/04/06 07:32:21;;;;;;;16.33;9.40;;;;;;;;;;5031873;28;20484;-64
2021/04/06 07:34:48;;;;;;;25.40;12.70;;;;;;;;;;5035523;28;20457;-65
2021/04/06 07:37:14;;;;;;;30.07;15.93;;;;;;;;;;5034922;28;20511;-65
2021/04/06 07:39:41;;;;;;;26.40;12.97;;;;;;;;;;5035176;28;20452;-65
2021/04/06 07:42:08;;;;;;;22.77;13.37;;;;;;;;;;5034890;28;20472;-65
2021/04/06 07:44:35;;;;;;;24.30;14.27;;;;;;;;;;5035191;28;20480;-65
2021/04/06 07:47:02;;;;;;;25.90;14.23;;;;;;;;;;5034833;28;20464;-57
2021/04/06 07:49:38;;;;;;;24.00;13.97;;;;;;;;;;5034751;28;20996;-59
2021/04/06 07:52:05;;;;;;;25.50;13.97;;;;;;;;;;5034855;28;20898;-60
2021/04/06 07:54:47;;;;;;;21.60;12.87;;;;;;;;;;5035041;28;20531;-59
2021/04/06 07:57:14;;;;;;;18.20;12.10;;;;;;;;;;5032855;28;20526;-59
2021/04/06 07:59:52;;;;;;;18.20;12.37;;;;;;;;;;5035001;28;20449;-58
2021/04/06 08:02:32;;;;;;;22.70;12.87;;;;;;;;;;5033999;28;20477;-60
2021/04/06 08:05:00;;;;;;;27.13;12.40;;;;;;;;;;5034727;28;20476;-67
2021/04/06 08:07:28;;;;;;;22.30;12.30;;;;;;;;;;5034232;28;20449;-66
2021/04/06 08:09:55;;;;;;;20.70;11.03;;;;;;;;;;5034418;28;20972;-65
2021/04/06 08:12:22;;;;;;;21.93;11.20;;;;;;;;;;5034209;28;20465;-66
2021/04/06 08:14:50;;;;;;;19.00;12.23;;;;;;;;;;5034432;28;20508;-68
2021/04/06 08:17:35;;;;;;;20.73;12.60;;;;;;;;;;5034314;28;20539;-67
2021/04/06 08:20:07;;;;;;;27.10;12.47;;;;;;;;;;5034368;28;20488;-67
2021/04/06 08:22:45;;;;;;;22.67;12.43;;;;;;;;;;5034122;28;20478;-67
2021/04/06 08:25:30;;;;;;;22.60;12.57;;;;;;;;;;5033993;28;21017;-67
2021/04/06 08:27:58;;;;;;;19.93;12.03;;;;;;;;;;5033858;28;20453;-67
2021/04/06 08:30:25;;;;;;;20.77;11.40;;;;;;;;;;5034404;28;20937;-65
2021/04/06 08:33:11;;;;;;;18.73;10.77;;;;;;;;;;5033841;28;20470;-64
2021/04/06 08:35:57;;;;;;;18.07;10.37;;;;;;;;;;5033714;28;21079;-63
2021/04/06 08:38:42;;;;;;;24.63;9.57;;;;;;;;;;5033553;28;20540;-64
2021/04/06 08:41:12;;;;;;;16.63;8.77;;;;;;;;;;5034330;28;20512;-64
2021/04/06 08:43:39;;;;;;;13.97;7.30;;;;;;;;;;5033036;28;20584;-63
2021/04/06 08:46:07;;;;;;;17.93;7.83;;;;;;;;;;5033359;28;20517;-66
2021/04/06 08:48:47;;;;;;;11.23;6.40;;;;;;;;;;5033612;28;20459;-65
2021/04/06 08:51:20;;;;;;;14.60;6.80;;;;;;;;;;5033974;28;20454;-60
2021/04/06 08:53:47;;;;;;;12.30;6.30;;;;;;;;;;5033271;28;20475;-60
2021/04/06 08:56:15;;;;;;;12.43;6.13;;;;;;;;;;5033799;28;20457;-61
2021/04/06 08:58:41;;;;;;;13.00;6.80;;;;;;;;;;5033435;28;21116;-61
2021/04/06 09:01:08;;;;;;;15.23;6.63;;;;;;;;;;5034089;28;20454;-61
2021/04/06 09:03:35;;;;;;;16.93;5.87;;;;;;;;;;5033335;28;20485;-61
2021/04/06 09:06:06;;;;;;;13.33;5.53;;;;;;;;;;5033914;28;20501;-60
2021/04/06 09:08:46;;;;;;;14.30;5.70;;;;;;;;;;5032854;28;20455;-60
2021/04/06 09:11:13;;;;;;;13.97;5.23;;;;;;;;;;5033680;28;20466;-61
2021/04/06 09:13:40;;;;;;;19.77;4.57;;;;;;;;;;5033048;28;20533;-60
2021/04/06 09:16:09;;;;;;;9.93;4.47;;;;;;;;;;5033605;28;20446;-61
2021/04/06 09:18:36;;;;;;;33.53;4.17;;;;;;;;;;5032680;28;20507;-60
2021/04/06 09:21:06;;;;;;;14.17;3.93;;;;;;;;;;5033193;28;20961;-65
2021/04/06 09:23:32;;;;;;;7.27;3.07;;;;;;;;;;5032426;28;20481;-65
2021/04/06 09:25:59;;;;;;;6.20;2.90;;;;;;;;;;5033326;28;20580;-65
2021/04/06 09:28:25;;;;;;;7.20;2.60;;;;;;;;;;5032470;28;20449;-64
2021/04/06 09:30:53;;;;;;;8.93;3.57;;;;;;;;;;5044149;28;20455;-64
2021/04/06 09:33:21;;;;;;;11.60;3.50;;;;;;;;;;5052663;28;20469;-65
2021/04/06 09:35:49;;;;;;;9.60;2.73;;;;;;;;;;5053218;28;20477;-65
2021/04/06 09:38:17;;;;;;;12.67;3.63;;;;;;;;;;5051992;28;21005;-65
2021/04/06 09:40:44;;;;;;;7.77;2.57;;;;;;;;;;5052945;28;20955;-65
2021/04/06 09:43:10;;;;;;;7.10;2.20;;;;;;;;;;5046218;28;20844;-65
2021/04/06 09:45:37;;;;;;;7.67;2.50;;;;;;;;;;5052280;28;20482;-64
2021/04/06 09:48:05;;;;;;;9.80;2.87;;;;;;;;;;5052358;28;20455;-66
2021/04/06 09:50:31;;;;;;;5.77;2.37;;;;;;;;;;5051965;28;20481;-64
2021/04/06 09:52:58;;;;;;;6.87;2.83;;;;;;;;;;5052002;28;21009;-63
2021/04/06 09:55:26;;;;;;;6.47;2.80;;;;;;;;;;5052242;28;20795;-64
2021/04/06 09:57:54;;;;;;;5.47;2.57;;;;;;;;;;5051900;28;20459;-66
2021/04/06 10:00:21;;;;;;;7.03;2.93;;;;;;;;;;5051914;28;21013;-65
2021/04/06 10:03:02;;;;;;;7.37;2.90;;;;;;;;;;5051740;28;20550;-61
2021/04/06 10:05:29;;;;;;;5.97;2.93;;;;;;;;;;5052556;28;20487;-62
2021/04/06 10:07:56;;;;;;;10.60;3.37;;;;;;;;;;5051751;28;20455;-66
2021/04/06 10:10:23;;;;;;;5.30;2.53;;;;;;;;;;5051797;28;20451;-68
2021/04/06 10:12:51;;;;;;;7.43;2.50;;;;;;;;;;5051616;28;20468;-66
2021/04/06 10:15:18;;;;;;;7.03;2.37;;;;;;;;;;5052074;28;20443;-68
2021/04/06 10:17:45;;;;;;;9.23;3.07;;;;;;;;;;5051294;28;20459;-66
2021/04/06 10:20:12;;;;;;;8.67;3.77;;;;;;;;;;5051826;28;20447;-68
2021/04/06 10:22:40;;;;;;;8.97;4.27;;;;;;;;;;5051663;28;20468;-67
2021/04/06 10:25:07;;;;;;;8.57;4.00;;;;;;;;;;5051683;28;20447;-66
2021/04/06 10:27:38;;;;;;;7.87;3.40;;;;;;;;;;5051428;28;20815;-69
2021/04/06 10:30:06;;;;;;;5.80;2.47;;;;;;;;;;5051406;28;20429;-70
2021/04/06 10:32:34;;;;;;;8.90;2.80;;;;;;;;;;5051622;28;20891;-69
2021/04/06 10:35:02;;;;;;;4.07;1.80;;;;;;;;;;5052060;28;20463;-64
2021/04/06 10:37:39;;;;;;;2.93;1.93;;;;;;;;;;5051496;28;20463;-64
2021/04/06 10:42:59;;;;;;;5.00;1.87;;;;;;;;;;5129381;27;20529;-63
2021/04/06 10:45:26;;;;;;;4.83;1.80;;;;;;;;;;5129776;27;20441;-63
2021/04/06 10:47:53;;;;;;;4.20;2.07;;;;;;;;;;5129587;27;20448;-65
2021/04/06 10:50:27;;;;;;;2.80;1.93;;;;;;;;;;5129298;27;20440;-64
2021/04/06 10:52:54;;;;;;;6.53;2.23;;;;;;;;;;5128918;27;20455;-63
2021/04/06 10:55:32;;;;;;;7.17;2.70;;;;;;;;;;5129573;27;21159;-65
2021/04/06 10:57:59;;;;;;;7.17;3.10;;;;;;;;;;5129172;27;20816;-65
2021/04/06 11:00:27;;;;;;;3.70;2.50;;;;;;;;;;5129116;27;20489;-64
2021/04/06 11:03:13;;;;;;;5.37;2.37;;;;;;;;;;5128933;27;20984;-64
2021/04/06 11:05:40;;;;;;;4.70;1.97;;;;;;;;;;5129158;27;20451;-64
2021/04/06 11:08:16;;;;;;;3.97;2.30;;;;;;;;;;5128860;27;20454;-62
2021/04/06 11:10:42;;;;;;;7.33;2.80;;;;;;;;;;5128769;27;20455;-60
2021/04/06 11:13:10;;;;;;;8.53;2.70;;;;;;;;;;5128855;27;20471;-63
2021/04/06 11:15:36;;;;;;;2.20;1.90;;;;;;;;;;5129140;27;20452;-61
2021/04/06 11:18:04;;;;;;;4.57;2.53;;;;;;;;;;5128097;27;20980;-67
2021/04/06 11:20:30;;;;;;;8.27;3.30;;;;;;;;;;5129098;27;20444;-66
2021/04/06 11:22:57;;;;;;;5.63;2.80;;;;;;;;;;5128319;27;20495;-62
2021/04/06 11:25:23;;;;;;;6.53;2.67;;;;;;;;;;5129276;27;20449;-64
2021/04/06 11:27:52;;;;;;;4.93;2.50;;;;;;;;;;5128461;27;20829;-64
2021/04/06 11:30:20;;;;;;;5.53;2.00;;;;;;;;;;5128695;27;20487;-64
2021/04/06 11:32:46;;;;;;;4.60;2.30;;;;;;;;;;5128646;27;20465;-65
2021/04/06 11:35:13;;;;;;;6.23;2.67;;;;;;;;;;5129218;27;20452;-63
2021/04/06 11:37:40;;;;;;;6.90;2.40;;;;;;;;;;5128794;27;20448;-65
2021/04/06 11:40:07;;;;;;;7.47;2.23;;;;;;;;;;5128898;27;20444;-66
2021/04/06 11:42:34;;;;;;;4.33;2.30;;;;;;;;;;5128689;27;20962;-67
2021/04/06 11:45:01;;;;;;;5.00;2.03;;;;;;;;;;5128929;27;20505;-67
2021/04/06 11:47:28;;;;;;;2.80;1.90;;;;;;;;;;5128910;27;20456;-66
2021/04/06 11:49:55;;;;;;;6.93;2.67;;;;;;;;;;5128776;27;20448;-66
2021/04/06 11:52:21;;;;;;;4.27;2.20;;;;;;;;;;5126380;27;20468;-67
2021/04/06 11:54:48;;;;;;;8.03;2.80;;;;;;;;;;5114930;28;20453;-67
2021/04/06 11:57:14;;;;;;;6.13;2.60;;;;;;;;;;5114739;28;20449;-67
2021/04/06 11:59:41;;;;;;;5.13;2.90;;;;;;;;;;5114167;28;20449;-67
2021/04/06 12:02:08;;;;;;;5.37;2.73;;;;;;;;;;5114880;28;20499;-67
2021/04/06 12:04:35;;;;;;;7.17;3.20;;;;;;;;;;5114157;28;20945;-68
2021/04/06 12:07:02;;;;;;;5.83;3.50;;;;;;;;;;5114620;28;20871;-68
2021/04/06 12:09:28;;;;;;;5.77;3.70;;;;;;;;;;5114615;28;20471;-70
2021/04/06 12:11:55;;;;;;;7.20;3.80;;;;;;;;;;5114464;28;20991;-67
2021/04/06 12:14:22;;;;;;;7.17;3.07;;;;;;;;;;5114150;28;20992;-66
2021/04/06 12:16:49;;;;;;;5.87;3.57;;;;;;;;;;5114356;28;20457;-65
2021/04/06 12:19:15;;;;;;;5.03;2.50;;;;;;;;;;5114417;28;21022;-65
2021/04/06 12:21:45;;;;;;;2.87;2.03;;;;;;;;;;5114354;28;20531;-70
2021/04/06 12:24:12;;;;;;;2.43;1.73;;;;;;;;;;5114298;28;20479;-67
2021/04/06 12:26:39;;;;;;;2.67;1.57;;;;;;;;;;5114023;28;20883;-70
2021/04/06 12:29:05;;;;;;;2.27;1.87;;;;;;;;;;5113868;28;20507;-70
2021/04/06 12:31:32;;;;;;;5.57;2.57;;;;;;;;;;5114414;28;20864;-67
2021/04/06 12:33:58;;;;;;;5.67;4.10;;;;;;;;;;5114054;28;20504;-66
2021/04/06 12:36:27;;;;;;;7.70;4.60;;;;;;;;;;5114169;28;20445;-67
2021/04/06 12:38:54;;;;;;;5.80;4.37;;;;;;;;;;5113659;28;20454;-68
2021/04/06 12:41:21;;;;;;;6.00;5.03;;;;;;;;;;5113797;28;21067;-68
2021/04/06 12:43:47;;;;;;;7.90;4.23;;;;;;;;;;5113684;28;20469;-67
2021/04/06 12:46:14;;;;;;;4.77;3.23;;;;;;;;;;5114155;27;20471;-67
2021/04/06 12:48:41;;;;;;;3.33;1.97;;;;;;;;;;5113305;28;21004;-67
2021/04/06 12:51:07;;;;;;;5.03;3.00;;;;;;;;;;5113612;28;20458;-67
2021/04/06 12:53:34;;;;;;;3.30;1.50;;;;;;;;;;5113178;28;20473;-69
2021/04/06 12:56:02;;;;;;;2.60;1.90;;;;;;;;;;5113301;28;20510;-67
2021/04/06 12:58:28;;;;;;;2.43;1.93;;;;;;;;;;5113225;28;20452;-69
2021/04/06 13:00:55;;;;;;;3.33;1.30;;;;;;;;;;5113405;28;20450;-68
2021/04/06 13:03:21;;;;;;;2.80;1.80;;;;;;;;;;5113308;28;20502;-67
2021/04/06 13:05:48;;;;;;;3.33;1.60;;;;;;;;;;5112488;28;20451;-68
2021/04/06 13:08:14;;;;;;;3.53;2.30;;;;;;;;;;5112854;28;20447;-70
2021/04/06 13:10:41;;;;;;;4.63;2.97;;;;;;;;;;5112964;28;20463;-69
2021/04/06 13:13:09;;;;;;;3.00;2.53;;;;;;;;;;5112853;28;20528;-70
2021/04/06 13:15:36;;;;;;;4.83;4.07;;;;;;;;;;5113198;28;20457;-65
2021/04/06 13:18:03;;;;;;;5.67;4.90;;;;;;;;;;5112726;28;20447;-65
2021/04/06 13:20:29;;;;;;;5.60;4.53;;;;;;;;;;5113053;28;20469;-65
2021/04/06 13:22:56;;;;;;;5.53;4.70;;;;;;;;;;5112286;27;20488;-68
2021/04/06 13:25:23;;;;;;;5.40;3.70;;;;;;;;;;5113259;28;20447;-67
2021/04/06 13:27:49;;;;;;;4.07;3.07;;;;;;;;;;5112643;28;20461;-68
2021/04/06 13:30:18;;;;;;;3.77;2.80;;;;;;;;;;5112941;28;20455;-68
2021/04/06 13:32:45;;;;;;;4.43;2.80;;;;;;;;;;5112200;28;20482;-69
2021/04/06 13:35:12;;;;;;;3.43;1.93;;;;;;;;;;5113071;28;20445;-68
2021/04/06 13:37:39;;;;;;;2.93;1.80;;;;;;;;;;5112372;28;20448;-68
2021/04/06 13:40:06;;;;;;;4.77;2.23;;;;;;;;;;5112511;28;20518;-68
2021/04/06 13:42:34;;;;;;;5.57;1.60;;;;;;;;;;5112452;28;20493;-69
2021/04/06 13:45:01;;;;;;;2.50;2.30;;;;;;;;;;5113002;28;20492;-69
2021/04/06 13:47:28;;;;;;;5.30;3.03;;;;;;;;;;5112815;27;20860;-69
2021/04/06 13:49:55;;;;;;;7.13;2.73;;;;;;;;;;5112154;28;20873;-69
2021/04/06 13:52:22;;;;;;;4.20;3.47;;;;;;;;;;5112913;28;20832;-67
2021/04/06 13:54:48;;;;;;;5.97;3.20;;;;;;;;;;5114628;28;20445;-65
2021/04/06 13:57:15;;;;;;;4.97;2.70;;;;;;;;;;5113243;28;20452;-67
2021/04/06 13:59:42;;;;;;;5.53;2.40;;;;;;;;;;5112702;28;20446;-67
2021/04/06 14:02:09;;;;;;;3.67;3.10;;;;;;;;;;5112572;28;20892;-67
2021/04/06 14:04:37;;;;;;;8.03;3.57;;;;;;;;;;5112322;28;20447;-66
2021/04/06 14:07:03;;;;;;;5.23;3.97;;;;;;;;;;5112690;28;20457;-68
2021/04/06 14:09:30;;;;;;;3.57;2.33;;;;;;;;;;5112717;28;20458;-69
2021/04/06 14:11:59;;;;;;;3.87;3.10;;;;;;;;;;5112679;28;20445;-71
2021/04/06 14:14:25;;;;;;;4.93;2.70;;;;;;;;;;5111866;28;20489;-63
2021/04/06 14:16:52;;;;;;;7.57;3.70;;;;;;;;;;5112240;28;20847;-68
2021/04/06 14:19:19;;;;;;;5.90;3.27;;;;;;;;;;5111942;27;20446;-68
2021/04/06 14:21:49;;;;;;;3.83;1.93;;;;;;;;;;5112548;28;20485;-68
2021/04/06 14:24:16;;;;;;;1.63;1.17;;;;;;;;;;5112068;28;20449;-68
2021/04/06 14:26:42;;;;;;;4.17;1.50;;;;;;;;;;5111850;28;20452;-66
2021/04/06 14:29:10;;;;;;;3.10;1.30;;;;;;;;;;5111789;28;20457;-66
2021/04/06 14:31:37;;;;;;;1.50;1.40;;;;;;;;;;5111905;28;20442;-64
2021/04/06 14:34:04;;;;;;;2.10;1.37;;;;;;;;;;5112086;28;20466;-64
2021/04/06 14:36:30;;;;;;;2.10;1.03;;;;;;;;;;5112247;28;20507;-64
2021/04/06 14:38:58;;;;;;;2.37;1.20;;;;;;;;;;5112243;28;20449;-64
2021/04/06 14:41:24;;;;;;;1.40;1.17;;;;;;;;;;5112039;28;20486;-64